sensor_id;sensor_type;location;lat;lon;timestamp;P1;durP1;ratioP1;P2;durP2;ratioP2
35188;SDS011;21762;54.480;18.556;2023-02-11T00:01:19;27.85;;;12.82;;
35188;SDS011;21762;54.480;18.556;2023-02-11T00:03:48;29.38;;;12.63;;
35188;SDS011;21762;54.480;18.556;2023-02-11T00:06:18;31.20;;;13.43;;
35188;SDS011;21762;54.480;18.556;2023-02-11T00:08:46;27.65;;;12.77;;
35188;SDS011;21762;54.480;18.556;2023-02-11T00:11:16;32.78;;;14.23;;
35188;SDS011;21762;54.480;18.556;2023-02-11T00:13:47;30.75;;;13.48;;
35188;SDS011;21762;54.480;18.556;2023-02-11T00:16:17;36.83;;;15.88;;
35188;SDS011;21762;54.480;18.556;2023-02-11T00:18:46;32.00;;;13.53;;
35188;SDS011;21762;54.480;18.556;2023-02-11T00:21:16;30.38;;;14.55;;
35188;SDS011;21762;54.480;18.556;2023-02-11T00:23:47;30.48;;;13.68;;
35188;SDS011;21762;54.480;18.556;2023-02-11T00:26:17;29.77;;;13.60;;
35188;SDS011;21762;54.480;18.556;2023-02-11T00:28:47;32.72;;;14.50;;
35188;SDS011;21762;54.480;18.556;2023-02-11T00:31:17;36.67;;;15.75;;
35188;SDS011;21762;54.480;18.556;2023-02-11T00:33:47;29.55;;;13.70;;
35188;SDS011;21762;54.480;18.556;2023-02-11T00:36:16;28.80;;;14.77;;
35188;SDS011;21762;54.480;18.556;2023-02-11T00:38:47;30.08;;;14.32;;
35188;SDS011;21762;54.480;18.556;2023-02-11T00:41:16;30.77;;;13.65;;
35188;SDS011;21762;54.480;18.556;2023-02-11T00:43:46;32.78;;;14.07;;
35188;SDS011;21762;54.480;18.556;2023-02-11T00:46:16;35.17;;;14.98;;
35188;SDS011;21762;54.480;18.556;2023-02-11T00:48:44;32.63;;;16.25;;
35188;SDS011;21762;54.480;18.556;2023-02-11T00:51:13;43.67;;;16.80;;
35188;SDS011;21762;54.480;18.556;2023-02-11T00:53:43;29.40;;;14.75;;
35188;SDS011;21762;54.480;18.556;2023-02-11T00:56:11;33.83;;;15.95;;
35188;SDS011;21762;54.480;18.556;2023-02-11T00:58:40;33.97;;;16.98;;
35188;SDS011;21762;54.480;18.556;2023-02-11T01:01:09;34.08;;;15.27;;
35188;SDS011;21762;54.480;18.556;2023-02-11T01:03:38;37.90;;;15.98;;
35188;SDS011;21762;54.480;18.556;2023-02-11T01:06:07;37.28;;;18.08;;
35188;SDS011;21762;54.480;18.556;2023-02-11T01:08:36;46.55;;;17.85;;
35188;SDS011;21762;54.480;18.556;2023-02-11T01:11:10;37.65;;;17.38;;
35188;SDS011;21762;54.480;18.556;2023-02-11T01:13:43;36.35;;;17.92;;
35188;SDS011;21762;54.480;18.556;2023-02-11T01:16:14;42.20;;;16.95;;
35188;SDS011;21762;54.480;18.556;2023-02-11T01:18:44;40.65;;;18.63;;
35188;SDS011;21762;54.480;18.556;2023-02-11T01:21:12;39.95;;;19.38;;
35188;SDS011;21762;54.480;18.556;2023-02-11T01:23:41;43.08;;;19.80;;
35188;SDS011;21762;54.480;18.556;2023-02-11T01:26:12;40.63;;;19.90;;
35188;SDS011;21762;54.480;18.556;2023-02-11T01:28:40;45.10;;;19.58;;
35188;SDS011;21762;54.480;18.556;2023-02-11T01:31:09;43.80;;;20.00;;
35188;SDS011;21762;54.480;18.556;2023-02-11T01:33:37;42.78;;;20.20;;
35188;SDS011;21762;54.480;18.556;2023-02-11T01:36:06;44.83;;;22.25;;
35188;SDS011;21762;54.480;18.556;2023-02-11T01:38:35;43.10;;;20.77;;
35188;SDS011;21762;54.480;18.556;2023-02-11T01:41:04;41.33;;;22.23;;
35188;SDS011;21762;54.480;18.556;2023-02-11T01:43:36;44.33;;;21.08;;
35188;SDS011;21762;54.480;18.556;2023-02-11T01:46:27;43.25;;;20.23;;
35188;SDS011;21762;54.480;18.556;2023-02-11T01:48:58;47.63;;;19.42;;
35188;SDS011;21762;54.480;18.556;2023-02-11T01:51:31;46.28;;;20.45;;
35188;SDS011;21762;54.480;18.556;2023-02-11T01:54:02;42.97;;;20.40;;
35188;SDS011;21762;54.480;18.556;2023-02-11T01:59:43;40.08;;;18.75;;
35188;SDS011;21762;54.480;18.556;2023-02-11T02:02:14;46.67;;;20.63;;
35188;SDS011;21762;54.480;18.556;2023-02-11T02:04:45;46.10;;;20.35;;
35188;SDS011;21762;54.480;18.556;2023-02-11T02:07:19;44.30;;;20.10;;
35188;SDS011;21762;54.480;18.556;2023-02-11T02:09:54;42.38;;;19.48;;
35188;SDS011;21762;54.480;18.556;2023-02-11T02:12:27;44.33;;;20.23;;
35188;SDS011;21762;54.480;18.556;2023-02-11T02:17:51;47.15;;;21.30;;
35188;SDS011;21762;54.480;18.556;2023-02-11T02:23:30;47.60;;;21.60;;
35188;SDS011;21762;54.480;18.556;2023-02-11T02:26:31;44.10;;;21.08;;
35188;SDS011;21762;54.480;18.556;2023-02-11T02:32:23;46.72;;;21.58;;
35188;SDS011;21762;54.480;18.556;2023-02-11T02:35:09;51.85;;;22.38;;
35188;SDS011;21762;54.480;18.556;2023-02-11T02:37:40;47.47;;;21.80;;
35188;SDS011;21762;54.480;18.556;2023-02-11T02:40:14;47.75;;;21.40;;
35188;SDS011;21762;54.480;18.556;2023-02-11T02:42:43;42.53;;;19.50;;
35188;SDS011;21762;54.480;18.556;2023-02-11T02:45:12;48.20;;;19.20;;
35188;SDS011;21762;54.480;18.556;2023-02-11T02:47:42;42.90;;;20.77;;
35188;SDS011;21762;54.480;18.556;2023-02-11T02:50:10;40.10;;;20.23;;
35188;SDS011;21762;54.480;18.556;2023-02-11T02:52:45;45.63;;;20.42;;
35188;SDS011;21762;54.480;18.556;2023-02-11T02:55:21;36.40;;;19.30;;
35188;SDS011;21762;54.480;18.556;2023-02-11T03:00:56;47.05;;;20.63;;
35188;SDS011;21762;54.480;18.556;2023-02-11T03:03:32;39.15;;;18.45;;
35188;SDS011;21762;54.480;18.556;2023-02-11T03:06:04;37.65;;;19.30;;
35188;SDS011;21762;54.480;18.556;2023-02-11T03:11:05;34.22;;;16.25;;
35188;SDS011;21762;54.480;18.556;2023-02-11T03:13:35;42.72;;;17.05;;
35188;SDS011;21762;54.480;18.556;2023-02-11T03:16:06;37.72;;;17.35;;
35188;SDS011;21762;54.480;18.556;2023-02-11T03:18:38;32.83;;;16.75;;
35188;SDS011;21762;54.480;18.556;2023-02-11T03:21:07;41.33;;;18.02;;
35188;SDS011;21762;54.480;18.556;2023-02-11T03:23:38;32.97;;;17.83;;
35188;SDS011;21762;54.480;18.556;2023-02-11T03:26:09;32.90;;;16.92;;
35188;SDS011;21762;54.480;18.556;2023-02-11T03:28:41;36.40;;;17.45;;
35188;SDS011;21762;54.480;18.556;2023-02-11T03:31:14;35.45;;;17.65;;
35188;SDS011;21762;54.480;18.556;2023-02-11T03:33:49;35.00;;;16.17;;
35188;SDS011;21762;54.480;18.556;2023-02-11T03:36:23;32.00;;;15.27;;
35188;SDS011;21762;54.480;18.556;2023-02-11T03:38:55;24.92;;;14.15;;
35188;SDS011;21762;54.480;18.556;2023-02-11T03:41:25;26.90;;;13.65;;
35188;SDS011;21762;54.480;18.556;2023-02-11T03:43:54;28.88;;;14.77;;
35188;SDS011;21762;54.480;18.556;2023-02-11T03:46:26;33.72;;;15.18;;
35188;SDS011;21762;54.480;18.556;2023-02-11T03:49:00;25.60;;;13.48;;
35188;SDS011;21762;54.480;18.556;2023-02-11T03:51:30;30.88;;;13.45;;
35188;SDS011;21762;54.480;18.556;2023-02-11T03:54:00;22.63;;;12.75;;
35188;SDS011;21762;54.480;18.556;2023-02-11T03:56:31;23.40;;;13.23;;
35188;SDS011;21762;54.480;18.556;2023-02-11T03:59:02;24.30;;;13.45;;
35188;SDS011;21762;54.480;18.556;2023-02-11T04:01:30;25.95;;;13.02;;
35188;SDS011;21762;54.480;18.556;2023-02-11T04:04:00;25.80;;;13.80;;
35188;SDS011;21762;54.480;18.556;2023-02-11T04:06:29;25.42;;;12.98;;
35188;SDS011;21762;54.480;18.556;2023-02-11T04:08:57;20.40;;;11.85;;
35188;SDS011;21762;54.480;18.556;2023-02-11T04:11:26;22.33;;;11.85;;
35188;SDS011;21762;54.480;18.556;2023-02-11T04:13:54;23.00;;;12.18;;
35188;SDS011;21762;54.480;18.556;2023-02-11T04:16:22;20.63;;;11.45;;
35188;SDS011;21762;54.480;18.556;2023-02-11T04:18:51;21.15;;;10.77;;
35188;SDS011;21762;54.480;18.556;2023-02-11T04:21:21;21.30;;;11.27;;
35188;SDS011;21762;54.480;18.556;2023-02-11T04:23:49;19.30;;;10.35;;
35188;SDS011;21762;54.480;18.556;2023-02-11T04:26:18;20.15;;;11.73;;
35188;SDS011;21762;54.480;18.556;2023-02-11T04:28:46;21.95;;;11.18;;
35188;SDS011;21762;54.480;18.556;2023-02-11T04:31:14;22.40;;;9.93;;
35188;SDS011;21762;54.480;18.556;2023-02-11T04:33:43;19.13;;;10.10;;
35188;SDS011;21762;54.480;18.556;2023-02-11T04:36:11;17.73;;;9.52;;
35188;SDS011;21762;54.480;18.556;2023-02-11T04:38:41;17.98;;;8.60;;
35188;SDS011;21762;54.480;18.556;2023-02-11T04:41:10;16.23;;;9.27;;
35188;SDS011;21762;54.480;18.556;2023-02-11T04:43:38;18.77;;;9.02;;
35188;SDS011;21762;54.480;18.556;2023-02-11T04:46:07;20.58;;;8.52;;
35188;SDS011;21762;54.480;18.556;2023-02-11T04:48:35;17.98;;;9.65;;
35188;SDS011;21762;54.480;18.556;2023-02-11T04:51:04;14.60;;;8.55;;
35188;SDS011;21762;54.480;18.556;2023-02-11T04:53:33;17.35;;;8.65;;
35188;SDS011;21762;54.480;18.556;2023-02-11T04:56:03;18.15;;;7.85;;
35188;SDS011;21762;54.480;18.556;2023-02-11T04:58:32;14.18;;;8.43;;
35188;SDS011;21762;54.480;18.556;2023-02-11T05:01:04;15.20;;;8.75;;
35188;SDS011;21762;54.480;18.556;2023-02-11T05:03:33;13.43;;;8.05;;
35188;SDS011;21762;54.480;18.556;2023-02-11T05:06:02;18.05;;;8.82;;
35188;SDS011;21762;54.480;18.556;2023-02-11T05:08:31;15.82;;;9.00;;
35188;SDS011;21762;54.480;18.556;2023-02-11T05:10:59;16.80;;;8.70;;
35188;SDS011;21762;54.480;18.556;2023-02-11T05:13:30;19.23;;;9.48;;
35188;SDS011;21762;54.480;18.556;2023-02-11T05:15:59;15.88;;;8.27;;
35188;SDS011;21762;54.480;18.556;2023-02-11T05:18:28;15.10;;;8.05;;
35188;SDS011;21762;54.480;18.556;2023-02-11T05:20:56;15.90;;;8.48;;
35188;SDS011;21762;54.480;18.556;2023-02-11T05:23:25;14.80;;;8.73;;
35188;SDS011;21762;54.480;18.556;2023-02-11T05:25:53;16.80;;;8.25;;
35188;SDS011;21762;54.480;18.556;2023-02-11T05:28:22;17.15;;;8.23;;
35188;SDS011;21762;54.480;18.556;2023-02-11T05:30:52;16.15;;;7.50;;
35188;SDS011;21762;54.480;18.556;2023-02-11T05:33:20;13.93;;;7.90;;
35188;SDS011;21762;54.480;18.556;2023-02-11T05:35:49;15.43;;;7.20;;
35188;SDS011;21762;54.480;18.556;2023-02-11T05:38:17;14.10;;;8.13;;
35188;SDS011;21762;54.480;18.556;2023-02-11T05:40:46;14.07;;;7.03;;
35188;SDS011;21762;54.480;18.556;2023-02-11T05:43:14;12.95;;;6.90;;
35188;SDS011;21762;54.480;18.556;2023-02-11T05:45:42;11.23;;;6.82;;
35188;SDS011;21762;54.480;18.556;2023-02-11T05:48:12;11.40;;;6.63;;
35188;SDS011;21762;54.480;18.556;2023-02-11T05:50:41;14.73;;;6.72;;
35188;SDS011;21762;54.480;18.556;2023-02-11T05:53:09;8.52;;;5.20;;
35188;SDS011;21762;54.480;18.556;2023-02-11T05:55:38;11.15;;;6.43;;
35188;SDS011;21762;54.480;18.556;2023-02-11T05:58:06;9.45;;;6.25;;
35188;SDS011;21762;54.480;18.556;2023-02-11T06:00:35;11.68;;;5.47;;
35188;SDS011;21762;54.480;18.556;2023-02-11T06:03:04;11.52;;;5.30;;
35188;SDS011;21762;54.480;18.556;2023-02-11T06:05:35;9.95;;;6.03;;
35188;SDS011;21762;54.480;18.556;2023-02-11T06:08:03;11.73;;;6.40;;
35188;SDS011;21762;54.480;18.556;2023-02-11T06:10:32;8.65;;;5.30;;
35188;SDS011;21762;54.480;18.556;2023-02-11T06:13:00;9.75;;;5.15;;
35188;SDS011;21762;54.480;18.556;2023-02-11T06:15:29;10.27;;;5.82;;
35188;SDS011;21762;54.480;18.556;2023-02-11T06:17:57;8.88;;;4.80;;
35188;SDS011;21762;54.480;18.556;2023-02-11T06:20:26;7.22;;;4.55;;
35188;SDS011;21762;54.480;18.556;2023-02-11T06:22:56;12.13;;;5.75;;
35188;SDS011;21762;54.480;18.556;2023-02-11T06:25:24;8.95;;;5.65;;
35188;SDS011;21762;54.480;18.556;2023-02-11T06:27:53;10.32;;;5.40;;
35188;SDS011;21762;54.480;18.556;2023-02-11T06:30:22;10.40;;;4.95;;
35188;SDS011;21762;54.480;18.556;2023-02-11T06:32:50;8.52;;;5.07;;
35188;SDS011;21762;54.480;18.556;2023-02-11T06:35:18;13.05;;;5.88;;
35188;SDS011;21762;54.480;18.556;2023-02-11T06:37:47;11.98;;;5.75;;
35188;SDS011;21762;54.480;18.556;2023-02-11T06:40:17;11.73;;;5.82;;
35188;SDS011;21762;54.480;18.556;2023-02-11T06:42:45;8.98;;;4.75;;
35188;SDS011;21762;54.480;18.556;2023-02-11T06:45:14;9.77;;;5.20;;
35188;SDS011;21762;54.480;18.556;2023-02-11T06:47:42;10.35;;;5.55;;
35188;SDS011;21762;54.480;18.556;2023-02-11T06:50:12;12.85;;;5.72;;
35188;SDS011;21762;54.480;18.556;2023-02-11T06:52:41;11.18;;;5.85;;
35188;SDS011;21762;54.480;18.556;2023-02-11T06:55:09;8.50;;;4.45;;
35188;SDS011;21762;54.480;18.556;2023-02-11T06:57:39;9.50;;;4.40;;
35188;SDS011;21762;54.480;18.556;2023-02-11T07:00:08;10.90;;;4.93;;
35188;SDS011;21762;54.480;18.556;2023-02-11T07:02:37;6.80;;;4.63;;
35188;SDS011;21762;54.480;18.556;2023-02-11T07:05:06;9.65;;;4.47;;
35188;SDS011;21762;54.480;18.556;2023-02-11T07:07:35;9.52;;;5.40;;
35188;SDS011;21762;54.480;18.556;2023-02-11T07:10:04;9.15;;;5.00;;
35188;SDS011;21762;54.480;18.556;2023-02-11T07:12:33;10.43;;;4.35;;
35188;SDS011;21762;54.480;18.556;2023-02-11T07:15:03;9.98;;;4.20;;
35188;SDS011;21762;54.480;18.556;2023-02-11T07:17:33;10.18;;;4.97;;
35188;SDS011;21762;54.480;18.556;2023-02-11T07:20:01;9.30;;;4.82;;
35188;SDS011;21762;54.480;18.556;2023-02-11T07:22:30;9.88;;;5.22;;
35188;SDS011;21762;54.480;18.556;2023-02-11T07:24:59;13.77;;;5.00;;
35188;SDS011;21762;54.480;18.556;2023-02-11T07:27:27;11.27;;;4.88;;
35188;SDS011;21762;54.480;18.556;2023-02-11T07:29:56;8.93;;;4.13;;
35188;SDS011;21762;54.480;18.556;2023-02-11T07:32:25;13.75;;;5.97;;
35188;SDS011;21762;54.480;18.556;2023-02-11T07:34:54;9.57;;;4.70;;
35188;SDS011;21762;54.480;18.556;2023-02-11T07:37:22;12.65;;;5.47;;
35188;SDS011;21762;54.480;18.556;2023-02-11T07:39:51;12.38;;;5.40;;
35188;SDS011;21762;54.480;18.556;2023-02-11T07:42:19;15.05;;;4.57;;
35188;SDS011;21762;54.480;18.556;2023-02-11T07:44:47;9.88;;;4.55;;
35188;SDS011;21762;54.480;18.556;2023-02-11T07:47:16;7.80;;;4.78;;
35188;SDS011;21762;54.480;18.556;2023-02-11T07:49:46;10.35;;;4.32;;
35188;SDS011;21762;54.480;18.556;2023-02-11T07:52:14;12.68;;;5.25;;
35188;SDS011;21762;54.480;18.556;2023-02-11T07:54:43;13.65;;;5.28;;
35188;SDS011;21762;54.480;18.556;2023-02-11T07:57:11;10.68;;;4.90;;
35188;SDS011;21762;54.480;18.556;2023-02-11T07:59:40;8.88;;;4.32;;
35188;SDS011;21762;54.480;18.556;2023-02-11T08:02:08;8.40;;;4.80;;
35188;SDS011;21762;54.480;18.556;2023-02-11T08:04:37;9.02;;;3.80;;
35188;SDS011;21762;54.480;18.556;2023-02-11T08:07:07;11.15;;;4.72;;
35188;SDS011;21762;54.480;18.556;2023-02-11T08:09:35;7.05;;;4.00;;
35188;SDS011;21762;54.480;18.556;2023-02-11T08:12:04;8.63;;;4.00;;
35188;SDS011;21762;54.480;18.556;2023-02-11T08:14:33;7.13;;;3.90;;
35188;SDS011;21762;54.480;18.556;2023-02-11T08:17:01;7.68;;;3.15;;
35188;SDS011;21762;54.480;18.556;2023-02-11T08:19:30;8.18;;;3.00;;
35188;SDS011;21762;54.480;18.556;2023-02-11T08:22:00;5.90;;;2.90;;
35188;SDS011;21762;54.480;18.556;2023-02-11T08:24:30;5.50;;;2.55;;
35188;SDS011;21762;54.480;18.556;2023-02-11T08:26:59;5.22;;;2.92;;
35188;SDS011;21762;54.480;18.556;2023-02-11T08:29:27;4.38;;;2.30;;
35188;SDS011;21762;54.480;18.556;2023-02-11T08:31:56;5.47;;;2.90;;
35188;SDS011;21762;54.480;18.556;2023-02-11T08:34:24;6.47;;;2.95;;
35188;SDS011;21762;54.480;18.556;2023-02-11T08:36:53;3.72;;;2.50;;
35188;SDS011;21762;54.480;18.556;2023-02-11T08:39:21;5.95;;;2.90;;
35188;SDS011;21762;54.480;18.556;2023-02-11T08:41:52;3.60;;;2.53;;
35188;SDS011;21762;54.480;18.556;2023-02-11T08:44:22;5.40;;;2.28;;
35188;SDS011;21762;54.480;18.556;2023-02-11T08:46:51;4.93;;;2.60;;
35188;SDS011;21762;54.480;18.556;2023-02-11T08:49:20;5.80;;;2.90;;
35188;SDS011;21762;54.480;18.556;2023-02-11T08:51:48;5.20;;;1.90;;
35188;SDS011;21762;54.480;18.556;2023-02-11T08:54:17;9.20;;;3.05;;
35188;SDS011;21762;54.480;18.556;2023-02-11T08:56:49;5.63;;;2.72;;
35188;SDS011;21762;54.480;18.556;2023-02-11T08:59:19;4.97;;;2.40;;
35188;SDS011;21762;54.480;18.556;2023-02-11T09:01:47;4.10;;;2.40;;
35188;SDS011;21762;54.480;18.556;2023-02-11T09:04:16;4.97;;;2.40;;
35188;SDS011;21762;54.480;18.556;2023-02-11T09:06:45;3.88;;;2.30;;
35188;SDS011;21762;54.480;18.556;2023-02-11T09:09:14;3.60;;;1.95;;
35188;SDS011;21762;54.480;18.556;2023-02-11T09:11:43;4.32;;;2.03;;
35188;SDS011;21762;54.480;18.556;2023-02-11T09:14:14;6.57;;;2.22;;
35188;SDS011;21762;54.480;18.556;2023-02-11T09:16:46;7.20;;;1.77;;
35188;SDS011;21762;54.480;18.556;2023-02-11T09:19:15;2.97;;;1.63;;
35188;SDS011;21762;54.480;18.556;2023-02-11T09:21:44;2.90;;;1.80;;
35188;SDS011;21762;54.480;18.556;2023-02-11T09:24:13;3.78;;;1.65;;
35188;SDS011;21762;54.480;18.556;2023-02-11T09:26:42;3.53;;;1.58;;
35188;SDS011;21762;54.480;18.556;2023-02-11T09:29:11;5.88;;;1.77;;
35188;SDS011;21762;54.480;18.556;2023-02-11T09:31:39;4.05;;;1.17;;
35188;SDS011;21762;54.480;18.556;2023-02-11T09:34:10;2.35;;;1.27;;
35188;SDS011;21762;54.480;18.556;2023-02-11T09:36:39;4.20;;;1.73;;
35188;SDS011;21762;54.480;18.556;2023-02-11T09:39:08;5.13;;;2.25;;
35188;SDS011;21762;54.480;18.556;2023-02-11T09:41:50;5.78;;;2.10;;
35188;SDS011;21762;54.480;18.556;2023-02-11T09:44:26;2.67;;;1.25;;
35188;SDS011;21762;54.480;18.556;2023-02-11T09:46:56;6.60;;;1.77;;
35188;SDS011;21762;54.480;18.556;2023-02-11T09:49:32;1.70;;;1.00;;
35188;SDS011;21762;54.480;18.556;2023-02-11T09:52:04;4.22;;;1.80;;
35188;SDS011;21762;54.480;18.556;2023-02-11T09:54:34;5.32;;;2.10;;
35188;SDS011;21762;54.480;18.556;2023-02-11T09:57:06;4.30;;;1.70;;
35188;SDS011;21762;54.480;18.556;2023-02-11T09:59:52;6.07;;;2.30;;
35188;SDS011;21762;54.480;18.556;2023-02-11T10:02:22;4.80;;;1.52;;
35188;SDS011;21762;54.480;18.556;2023-02-11T10:05:04;4.20;;;1.63;;
35188;SDS011;21762;54.480;18.556;2023-02-11T10:07:41;7.25;;;2.75;;
35188;SDS011;21762;54.480;18.556;2023-02-11T10:10:17;5.90;;;2.33;;
35188;SDS011;21762;54.480;18.556;2023-02-11T10:12:56;6.53;;;2.58;;
35188;SDS011;21762;54.480;18.556;2023-02-11T10:15:35;11.23;;;2.78;;
35188;SDS011;21762;54.480;18.556;2023-02-11T10:18:15;12.48;;;3.05;;
35188;SDS011;21762;54.480;18.556;2023-02-11T10:20:56;11.65;;;2.90;;
35188;SDS011;21762;54.480;18.556;2023-02-11T10:23:32;10.90;;;3.58;;
35188;SDS011;21762;54.480;18.556;2023-02-11T10:26:07;12.93;;;4.32;;
35188;SDS011;21762;54.480;18.556;2023-02-11T10:28:41;10.25;;;3.00;;
35188;SDS011;21762;54.480;18.556;2023-02-11T10:31:12;21.70;;;5.20;;
35188;SDS011;21762;54.480;18.556;2023-02-11T10:33:44;16.27;;;4.80;;
35188;SDS011;21762;54.480;18.556;2023-02-11T10:36:16;23.88;;;3.90;;
35188;SDS011;21762;54.480;18.556;2023-02-11T10:38:45;21.45;;;4.18;;
35188;SDS011;21762;54.480;18.556;2023-02-11T10:41:15;18.30;;;4.55;;
35188;SDS011;21762;54.480;18.556;2023-02-11T10:43:45;14.93;;;3.72;;
35188;SDS011;21762;54.480;18.556;2023-02-11T10:46:15;18.40;;;3.58;;
35188;SDS011;21762;54.480;18.556;2023-02-11T10:48:45;16.08;;;3.05;;
35188;SDS011;21762;54.480;18.556;2023-02-11T10:51:17;24.15;;;5.60;;
35188;SDS011;21762;54.480;18.556;2023-02-11T10:53:48;16.70;;;4.18;;
35188;SDS011;21762;54.480;18.556;2023-02-11T10:56:21;18.60;;;3.97;;
35188;SDS011;21762;54.480;18.556;2023-02-11T10:58:57;20.13;;;4.25;;
35188;SDS011;21762;54.480;18.556;2023-02-11T11:04:25;20.50;;;4.28;;
35188;SDS011;21762;54.480;18.556;2023-02-11T11:07:18;16.40;;;4.00;;
35188;SDS011;21762;54.480;18.556;2023-02-11T11:09:50;17.42;;;4.05;;
35188;SDS011;21762;54.480;18.556;2023-02-11T11:12:30;16.98;;;3.55;;
35188;SDS011;21762;54.480;18.556;2023-02-11T11:15:02;18.50;;;3.60;;
35188;SDS011;21762;54.480;18.556;2023-02-11T11:17:42;17.17;;;4.00;;
35188;SDS011;21762;54.480;18.556;2023-02-11T11:20:21;21.20;;;4.22;;
35188;SDS011;21762;54.480;18.556;2023-02-11T11:23:07;28.23;;;4.88;;
35188;SDS011;21762;54.480;18.556;2023-02-11T11:25:38;18.58;;;3.80;;
35188;SDS011;21762;54.480;18.556;2023-02-11T11:28:16;17.20;;;3.78;;
35188;SDS011;21762;54.480;18.556;2023-02-11T11:30:47;22.70;;;3.95;;
35188;SDS011;21762;54.480;18.556;2023-02-11T11:33:18;26.92;;;6.88;;
35188;SDS011;21762;54.480;18.556;2023-02-11T11:35:56;17.58;;;3.30;;
35188;SDS011;21762;54.480;18.556;2023-02-11T11:38:28;20.60;;;3.88;;
35188;SDS011;21762;54.480;18.556;2023-02-11T11:41:14;18.48;;;3.00;;
35188;SDS011;21762;54.480;18.556;2023-02-11T11:43:56;18.42;;;3.72;;
35188;SDS011;21762;54.480;18.556;2023-02-11T11:46:27;23.98;;;4.60;;
35188;SDS011;21762;54.480;18.556;2023-02-11T11:48:59;25.90;;;3.30;;
35188;SDS011;21762;54.480;18.556;2023-02-11T11:51:33;23.02;;;4.40;;
35188;SDS011;21762;54.480;18.556;2023-02-11T11:54:05;18.40;;;4.53;;
35188;SDS011;21762;54.480;18.556;2023-02-11T11:56:41;17.52;;;4.88;;
35188;SDS011;21762;54.480;18.556;2023-02-11T11:59:14;21.80;;;3.75;;
35188;SDS011;21762;54.480;18.556;2023-02-11T12:01:46;11.60;;;2.85;;
35188;SDS011;21762;54.480;18.556;2023-02-11T12:04:24;21.95;;;3.90;;
35188;SDS011;21762;54.480;18.556;2023-02-11T12:07:07;23.75;;;4.47;;
35188;SDS011;21762;54.480;18.556;2023-02-11T12:09:42;23.23;;;3.65;;
35188;SDS011;21762;54.480;18.556;2023-02-11T12:12:21;23.23;;;3.58;;
35188;SDS011;21762;54.480;18.556;2023-02-11T12:15:00;19.50;;;2.95;;
35188;SDS011;21762;54.480;18.556;2023-02-11T12:17:40;21.05;;;3.97;;
35188;SDS011;21762;54.480;18.556;2023-02-11T12:20:18;15.55;;;3.08;;
35188;SDS011;21762;54.480;18.556;2023-02-11T12:22:57;20.17;;;3.13;;
35188;SDS011;21762;54.480;18.556;2023-02-11T12:25:37;15.88;;;3.00;;
35188;SDS011;21762;54.480;18.556;2023-02-11T12:28:17;19.27;;;3.65;;
35188;SDS011;21762;54.480;18.556;2023-02-11T12:30:59;24.48;;;4.03;;
35188;SDS011;21762;54.480;18.556;2023-02-11T12:33:38;14.55;;;2.72;;
35188;SDS011;21762;54.480;18.556;2023-02-11T12:36:21;19.33;;;2.95;;
35188;SDS011;21762;54.480;18.556;2023-02-11T12:39:01;17.23;;;3.00;;
35188;SDS011;21762;54.480;18.556;2023-02-11T12:41:50;17.92;;;2.83;;
35188;SDS011;21762;54.480;18.556;2023-02-11T12:44:50;22.92;;;4.82;;
35188;SDS011;21762;54.480;18.556;2023-02-11T12:47:27;16.63;;;2.78;;
35188;SDS011;21762;54.480;18.556;2023-02-11T12:50:03;12.35;;;3.17;;
35188;SDS011;21762;54.480;18.556;2023-02-11T12:52:42;20.13;;;2.85;;
35188;SDS011;21762;54.480;18.556;2023-02-11T12:55:19;16.35;;;2.92;;
35188;SDS011;21762;54.480;18.556;2023-02-11T12:57:51;18.48;;;3.38;;
35188;SDS011;21762;54.480;18.556;2023-02-11T13:00:22;17.20;;;3.47;;
35188;SDS011;21762;54.480;18.556;2023-02-11T13:02:53;28.55;;;3.65;;
35188;SDS011;21762;54.480;18.556;2023-02-11T13:05:26;18.63;;;3.90;;
35188;SDS011;21762;54.480;18.556;2023-02-11T13:07:58;14.38;;;2.80;;
35188;SDS011;21762;54.480;18.556;2023-02-11T13:10:32;22.55;;;4.25;;
35188;SDS011;21762;54.480;18.556;2023-02-11T13:13:04;17.42;;;3.13;;
35188;SDS011;21762;54.480;18.556;2023-02-11T13:15:44;26.10;;;4.53;;
35188;SDS011;21762;54.480;18.556;2023-02-11T13:23:44;19.98;;;3.70;;
35188;SDS011;21762;54.480;18.556;2023-02-11T13:26:20;21.42;;;3.88;;
35188;SDS011;21762;54.480;18.556;2023-02-11T13:28:53;20.05;;;3.22;;
35188;SDS011;21762;54.480;18.556;2023-02-11T13:31:25;14.90;;;3.65;;
35188;SDS011;21762;54.480;18.556;2023-02-11T13:33:55;22.38;;;3.75;;
35188;SDS011;21762;54.480;18.556;2023-02-11T13:36:24;19.45;;;4.28;;
35188;SDS011;21762;54.480;18.556;2023-02-11T13:39:01;23.42;;;3.83;;
35188;SDS011;21762;54.480;18.556;2023-02-11T13:41:32;20.42;;;3.42;;
35188;SDS011;21762;54.480;18.556;2023-02-11T13:44:04;18.30;;;5.03;;
35188;SDS011;21762;54.480;18.556;2023-02-11T13:46:52;22.33;;;3.13;;
35188;SDS011;21762;54.480;18.556;2023-02-11T13:49:23;12.88;;;2.35;;
35188;SDS011;21762;54.480;18.556;2023-02-11T13:51:54;19.13;;;4.30;;
35188;SDS011;21762;54.480;18.556;2023-02-11T13:54:27;20.33;;;3.95;;
35188;SDS011;21762;54.480;18.556;2023-02-11T13:57:14;15.77;;;3.53;;
35188;SDS011;21762;54.480;18.556;2023-02-11T13:59:57;21.73;;;3.47;;
35188;SDS011;21762;54.480;18.556;2023-02-11T14:05:22;18.10;;;2.50;;
35188;SDS011;21762;54.480;18.556;2023-02-11T14:08:17;14.55;;;2.90;;
35188;SDS011;21762;54.480;18.556;2023-02-11T14:11:06;18.65;;;2.97;;
35188;SDS011;21762;54.480;18.556;2023-02-11T14:16:31;19.88;;;3.03;;
35188;SDS011;21762;54.480;18.556;2023-02-11T14:19:04;11.65;;;3.15;;
35188;SDS011;21762;54.480;18.556;2023-02-11T14:21:33;19.08;;;3.65;;
35188;SDS011;21762;54.480;18.556;2023-02-11T14:27:09;12.63;;;3.17;;
35188;SDS011;21762;54.480;18.556;2023-02-11T14:29:48;23.80;;;4.05;;
35188;SDS011;21762;54.480;18.556;2023-02-11T14:32:41;18.38;;;3.50;;
35188;SDS011;21762;54.480;18.556;2023-02-11T14:35:20;25.73;;;4.28;;
35188;SDS011;21762;54.480;18.556;2023-02-11T14:37:51;16.30;;;3.75;;
35188;SDS011;21762;54.480;18.556;2023-02-11T14:40:26;19.48;;;3.53;;
35188;SDS011;21762;54.480;18.556;2023-02-11T14:43:00;18.48;;;4.00;;
35188;SDS011;21762;54.480;18.556;2023-02-11T14:45:33;27.73;;;3.95;;
35188;SDS011;21762;54.480;18.556;2023-02-11T14:48:04;19.58;;;3.97;;
35188;SDS011;21762;54.480;18.556;2023-02-11T14:50:37;19.05;;;3.13;;
35188;SDS011;21762;54.480;18.556;2023-02-11T14:53:09;21.65;;;3.05;;
35188;SDS011;21762;54.480;18.556;2023-02-11T14:55:41;16.52;;;2.92;;
35188;SDS011;21762;54.480;18.556;2023-02-11T14:58:13;17.85;;;3.63;;
35188;SDS011;21762;54.480;18.556;2023-02-11T15:00:48;19.38;;;3.63;;
35188;SDS011;21762;54.480;18.556;2023-02-11T15:03:29;18.60;;;3.30;;
35188;SDS011;21762;54.480;18.556;2023-02-11T15:06:01;22.05;;;3.70;;
35188;SDS011;21762;54.480;18.556;2023-02-11T15:08:32;22.77;;;3.17;;
35188;SDS011;21762;54.480;18.556;2023-02-11T15:11:02;16.40;;;2.50;;
35188;SDS011;21762;54.480;18.556;2023-02-11T15:13:35;21.40;;;2.83;;
35188;SDS011;21762;54.480;18.556;2023-02-11T15:16:08;17.90;;;3.13;;
35188;SDS011;21762;54.480;18.556;2023-02-11T15:18:43;19.88;;;3.80;;
35188;SDS011;21762;54.480;18.556;2023-02-11T15:21:18;31.80;;;4.20;;
35188;SDS011;21762;54.480;18.556;2023-02-11T15:23:54;19.55;;;3.30;;